createdAt,value
2023-05-21T00:00:48.901Z,99.90
2023-05-21T00:02:52.854Z,99.90
2023-05-21T00:04:57.736Z,99.90
2023-05-21T00:07:01.506Z,99.90
2023-05-21T00:09:05.342Z,99.90
2023-05-21T00:11:09.080Z,99.90
2023-05-21T00:13:12.928Z,99.90
2023-05-21T00:15:16.561Z,99.90
2023-05-21T00:17:20.143Z,99.90
2023-05-21T00:19:24.116Z,99.90
2023-05-21T00:21:29.844Z,99.90
2023-05-21T00:23:34.248Z,99.90
2023-05-21T00:25:37.926Z,99.90
2023-05-21T00:27:41.552Z,99.90
2023-05-21T00:29:45.372Z,99.90
2023-05-21T00:31:50.430Z,99.90
2023-05-21T00:33:54.123Z,99.90
2023-05-21T00:35:58.099Z,99.90
2023-05-21T00:38:03.913Z,99.90
2023-05-21T00:40:09.500Z,99.90
2023-05-21T00:42:13.371Z,99.90
2023-05-21T00:44:17.062Z,99.90
2023-05-21T00:46:21.281Z,99.90
2023-05-21T00:48:26.424Z,99.90
2023-05-21T00:50:30.542Z,99.90
2023-05-21T00:52:41.756Z,99.90
2023-05-21T00:54:47.717Z,99.90
2023-05-21T00:56:51.350Z,99.90
2023-05-21T00:58:55.220Z,99.90
2023-05-21T01:00:59.195Z,99.90
2023-05-21T01:03:03.024Z,99.90
2023-05-21T01:05:07.440Z,99.90
2023-05-21T01:07:11.120Z,99.90
2023-05-21T01:09:15.125Z,99.90
2023-05-21T01:11:20.228Z,99.90
2023-05-21T01:13:23.942Z,99.90
2023-05-21T01:15:27.589Z,99.90
2023-05-21T01:17:32.117Z,99.90
2023-05-21T01:19:36.202Z,99.90
2023-05-21T01:21:42.940Z,99.90
2023-05-21T01:23:48.152Z,99.90
2023-05-21T01:25:51.745Z,99.90
2023-05-21T01:27:55.263Z,99.90
2023-05-21T01:29:59.197Z,99.90
2023-05-21T01:32:06.111Z,99.90
2023-05-21T01:34:10.506Z,99.90
2023-05-21T01:36:17.713Z,99.90
2023-05-21T01:38:24.321Z,99.90
2023-05-21T01:40:33.539Z,99.90
2023-05-21T01:42:37.350Z,99.90
2023-05-21T01:44:41.233Z,99.90
2023-05-21T01:46:44.979Z,99.90
2023-05-21T01:48:48.679Z,99.90
2023-05-21T01:50:53.084Z,99.90
2023-05-21T01:52:58.711Z,99.90
2023-05-21T01:55:02.199Z,99.90
2023-05-21T01:57:07.379Z,99.90
2023-05-21T01:59:12.571Z,99.90
2023-05-21T02:01:16.121Z,99.90
2023-05-21T02:03:20.270Z,99.90
2023-05-21T02:05:23.811Z,99.90
2023-05-21T02:07:29.106Z,99.90
2023-05-21T02:09:32.496Z,99.90
2023-05-21T02:11:36.541Z,99.90
2023-05-21T02:13:42.988Z,99.90
2023-05-21T02:15:47.276Z,99.90
2023-05-21T02:17:51.885Z,99.90
2023-05-21T02:19:55.673Z,99.90
2023-05-21T02:21:59.330Z,99.90
2023-05-21T02:24:02.819Z,99.90
2023-05-21T02:26:06.397Z,99.90
2023-05-21T02:28:09.877Z,99.90
2023-05-21T02:30:16.438Z,99.90
2023-05-21T02:32:20.120Z,99.90
2023-05-21T02:34:24.964Z,99.90
2023-05-21T02:36:28.960Z,99.90
2023-05-21T02:38:32.830Z,99.90
2023-05-21T02:40:36.714Z,99.90
2023-05-21T02:42:41.455Z,99.90
2023-05-21T02:44:45.053Z,99.90
2023-05-21T02:46:50.007Z,99.90
2023-05-21T02:48:53.708Z,99.90
2023-05-21T02:50:57.626Z,99.90
2023-05-21T02:53:01.601Z,99.90
2023-05-21T02:55:05.688Z,99.90
2023-05-21T02:57:09.748Z,99.90
2023-05-21T02:59:13.792Z,99.90
2023-05-21T03:01:17.492Z,99.90
2023-05-21T03:03:22.875Z,99.90
2023-05-21T03:05:26.468Z,99.90
2023-05-21T03:07:30.381Z,99.90
2023-05-21T03:09:34.168Z,99.90
2023-05-21T03:11:37.632Z,99.90
2023-05-21T03:13:42.904Z,99.90
2023-05-21T03:15:46.690Z,99.90
2023-05-21T03:17:50.769Z,99.90
2023-05-21T03:19:56.404Z,99.90
2023-05-21T03:22:00.005Z,99.90
2023-05-21T03:24:04.129Z,99.90
2023-05-21T03:26:07.833Z,99.90
2023-05-21T03:28:11.517Z,99.90
2023-05-21T03:30:15.520Z,99.90
2023-05-21T03:32:19.389Z,99.90
2023-05-21T03:34:24.178Z,99.90
2023-05-21T03:36:29.275Z,99.90
2023-05-21T03:38:34.059Z,99.90
2023-05-21T03:40:39.278Z,99.90
2023-05-21T03:42:42.949Z,99.90
2023-05-21T03:44:46.432Z,99.90
2023-05-21T03:46:50.264Z,99.90
2023-05-21T03:48:53.989Z,99.90
2023-05-21T03:50:58.334Z,99.90
2023-05-21T03:53:03.594Z,99.90
2023-05-21T03:55:07.802Z,99.90
2023-05-21T03:57:11.524Z,99.90
2023-05-21T03:59:15.419Z,99.90
2023-05-21T04:01:19.836Z,99.90
2023-05-21T04:03:23.770Z,99.90
2023-05-21T04:05:27.363Z,99.90
2023-05-21T04:07:31.432Z,99.90
2023-05-21T04:09:36.931Z,99.90
2023-05-21T04:11:40.714Z,99.90
2023-05-21T04:13:44.540Z,99.90
2023-05-21T04:15:48.824Z,99.90
2023-05-21T04:17:58.894Z,99.90
2023-05-21T04:20:08.204Z,99.90
2023-05-21T04:22:17.364Z,99.90
2023-05-21T04:24:26.348Z,99.90
2023-05-21T04:26:38.217Z,99.90
2023-05-21T04:28:49.013Z,99.90
2023-05-21T04:30:58.272Z,99.90
2023-05-21T04:33:07.742Z,99.90
2023-05-21T04:35:18.085Z,99.90
2023-05-21T04:37:27.942Z,99.90
2023-05-21T04:39:37.273Z,99.90
2023-05-21T04:41:48.892Z,99.90
2023-05-21T04:43:58.833Z,99.90
2023-05-21T04:46:08.857Z,99.90
2023-05-21T04:48:20.516Z,99.90
2023-05-21T04:50:32.207Z,99.90
2023-05-21T04:52:38.451Z,99.90
2023-05-21T04:54:48.044Z,99.90
2023-05-21T04:57:00.413Z,99.90
2023-05-21T04:59:06.735Z,99.90
2023-05-21T05:01:10.890Z,99.90
2023-05-21T05:03:15.484Z,99.90
2023-05-21T05:05:25.853Z,99.90
2023-05-21T05:07:36.151Z,99.90
2023-05-21T05:09:45.562Z,99.90
2023-05-21T05:11:57.219Z,99.90
2023-05-21T05:14:07.431Z,99.90
2023-05-21T05:16:26.718Z,99.90
2023-05-21T05:18:36.015Z,99.90
2023-05-21T05:20:45.664Z,99.90
2023-05-21T05:22:54.715Z,99.90
2023-05-21T05:25:04.255Z,99.90
2023-05-21T05:27:15.699Z,99.90
2023-05-21T05:29:24.759Z,99.90
2023-05-21T05:31:33.533Z,99.90
2023-05-21T05:33:43.417Z,99.90
2023-05-21T05:35:53.341Z,99.90
2023-05-21T05:38:02.689Z,99.90
2023-05-21T05:40:13.347Z,99.90
2023-05-21T05:42:25.548Z,99.90
2023-05-21T05:44:34.736Z,99.90
2023-05-21T05:46:43.871Z,99.90
2023-05-21T05:48:53.425Z,99.90
2023-05-21T05:51:03.207Z,99.90
2023-05-21T05:53:15.588Z,99.90
2023-05-21T05:55:27.275Z,99.90
2023-05-21T05:57:38.722Z,99.90
2023-05-21T05:59:48.388Z,99.90
2023-05-21T06:01:57.553Z,99.90
2023-05-21T06:04:07.185Z,99.90
2023-05-21T06:06:16.653Z,99.90
2023-05-21T06:08:26.643Z,99.90
2023-05-21T06:10:36.233Z,99.90
2023-05-21T06:12:48.336Z,99.90
2023-05-21T06:14:58.304Z,99.90
2023-05-21T06:17:07.618Z,99.90
2023-05-21T06:19:17.428Z,99.90
2023-05-21T06:21:27.333Z,99.90
2023-05-21T06:23:38.368Z,99.90
2023-05-21T06:25:47.782Z,99.90
2023-05-21T06:27:59.323Z,99.90
2023-05-21T06:30:09.150Z,99.90
2023-05-21T06:32:19.364Z,99.90
2023-05-21T06:34:29.275Z,99.90
2023-05-21T06:36:37.262Z,99.90
2023-05-21T06:38:47.504Z,99.90
2023-05-21T06:40:57.243Z,99.90
2023-05-21T06:43:09.781Z,99.90
2023-05-21T06:45:19.622Z,99.90
2023-05-21T06:47:29.853Z,99.90
2023-05-21T06:49:40.198Z,99.90
2023-05-21T06:51:51.085Z,99.90
2023-05-21T06:54:00.842Z,99.90
2023-05-21T06:56:10.521Z,99.90
2023-05-21T06:58:22.315Z,99.90
2023-05-21T07:00:31.955Z,99.90
2023-05-21T07:02:35.706Z,99.90
2023-05-21T07:04:40.425Z,99.90
2023-05-21T07:06:50.410Z,99.90
2023-05-21T07:08:59.154Z,99.90
2023-05-21T07:11:08.947Z,99.90
2023-05-21T07:13:21.331Z,99.90
2023-05-21T07:15:31.125Z,99.90
2023-05-21T07:17:39.585Z,99.90
2023-05-21T07:19:50.698Z,99.90
2023-05-21T07:22:01.717Z,99.90
2023-05-21T07:24:12.275Z,99.90
2023-05-21T07:26:21.872Z,99.90
2023-05-21T07:28:33.359Z,99.90
2023-05-21T07:30:43.439Z,99.90
2023-05-21T07:32:47.135Z,99.90
2023-05-21T07:34:57.454Z,99.90
2023-05-21T07:37:07.865Z,99.90
2023-05-21T07:39:17.156Z,99.90
2023-05-21T07:41:27.225Z,99.90
2023-05-21T07:43:40.166Z,99.90
2023-05-21T07:45:49.673Z,99.90
2023-05-21T07:48:00.838Z,99.90
2023-05-21T07:50:12.188Z,99.90
2023-05-21T07:52:22.815Z,99.90
2023-05-21T07:54:27.263Z,99.90
2023-05-21T07:56:37.084Z,99.90
2023-05-21T07:58:49.382Z,99.90
2023-05-21T08:01:00.269Z,99.90
2023-05-21T08:03:11.258Z,99.90
2023-05-21T08:05:22.130Z,99.90
2023-05-21T08:07:33.813Z,99.90
2023-05-21T08:09:44.326Z,99.90
2023-05-21T08:11:55.584Z,99.90
2023-05-21T08:14:07.568Z,99.90
2023-05-21T08:16:20.064Z,99.90
2023-05-21T08:18:29.861Z,99.90
2023-05-21T08:20:39.447Z,99.90
2023-05-21T08:22:50.252Z,99.90
2023-05-21T08:24:59.907Z,99.90
2023-05-21T08:27:10.292Z,99.90
2023-05-21T08:29:21.938Z,99.90
2023-05-21T08:31:32.158Z,99.90
2023-05-21T08:33:42.690Z,99.90
2023-05-21T08:35:53.443Z,99.90
2023-05-21T08:38:04.055Z,99.90
2023-05-21T08:40:15.681Z,99.90
2023-05-21T08:44:42.322Z,99.90
2023-05-21T08:46:54.291Z,99.90
2023-05-21T08:49:04.519Z,99.90
2023-05-21T08:51:15.354Z,99.90
2023-05-21T08:53:28.737Z,99.90
2023-05-21T08:55:41.141Z,99.90
2023-05-21T08:57:49.561Z,99.90
2023-05-21T09:00:00.653Z,99.90
2023-05-21T09:02:10.963Z,99.90
2023-05-21T09:04:21.774Z,99.90
2023-05-21T09:06:35.776Z,99.90
2023-05-21T09:08:40.831Z,99.90
2023-05-21T09:10:48.158Z,99.90
2023-05-21T09:12:57.536Z,99.90
2023-05-21T09:15:09.874Z,99.90
2023-05-21T09:17:22.693Z,99.90
2023-05-21T09:19:34.378Z,99.90
2023-05-21T09:21:45.956Z,99.90
2023-05-21T09:23:59.346Z,99.90
2023-05-21T09:26:03.243Z,99.90
2023-05-21T09:28:15.942Z,99.90
2023-05-21T09:30:26.816Z,99.90
2023-05-21T09:32:33.538Z,99.90
2023-05-21T09:34:43.554Z,99.90
2023-05-21T09:36:50.288Z,99.90
2023-05-21T09:38:57.021Z,99.90
2023-05-21T09:41:09.833Z,99.90
2023-05-21T09:43:15.863Z,99.90
2023-05-21T09:45:26.621Z,99.90
2023-05-21T09:47:36.320Z,99.90
2023-05-21T09:49:39.924Z,99.90
2023-05-21T09:51:46.403Z,99.90
2023-05-21T09:54:02.424Z,99.90
2023-05-21T09:56:12.608Z,99.90
2023-05-21T09:58:22.987Z,99.90
2023-05-21T10:00:31.433Z,99.90
2023-05-21T10:02:41.851Z,99.90
2023-05-21T10:04:53.072Z,99.90
2023-05-21T10:07:03.330Z,99.90
2023-05-21T10:09:15.141Z,99.90
2023-05-21T10:11:26.127Z,99.90
2023-05-21T10:13:29.765Z,99.90
2023-05-21T10:15:41.438Z,99.90
2023-05-21T10:17:46.897Z,99.90
2023-05-21T10:19:51.717Z,99.90
2023-05-21T10:21:58.615Z,99.90
2023-05-21T10:24:08.532Z,99.90
2023-05-21T10:26:12.272Z,99.90
2023-05-21T10:28:17.693Z,99.90
2023-05-21T10:30:25.201Z,99.90
2023-05-21T10:32:31.805Z,99.90
2023-05-21T10:34:39.033Z,99.90
2023-05-21T10:36:42.954Z,99.90
2023-05-21T10:38:51.161Z,99.90
2023-05-21T10:41:01.321Z,99.90
2023-05-21T10:43:49.000Z,99.90
2023-05-21T10:46:10.150Z,99.90
2023-05-21T10:48:31.580Z,99.90
2023-05-21T10:51:04.505Z,99.90
2023-05-21T10:53:20.033Z,99.90
2023-05-21T10:55:39.319Z,99.90
2023-05-21T10:58:07.098Z,99.90
2023-05-21T11:00:14.768Z,99.90
2023-05-21T11:02:23.209Z,99.90
2023-05-21T11:04:33.062Z,99.90
2023-05-21T11:06:43.743Z,99.90
2023-05-21T11:08:49.683Z,99.90
2023-05-21T11:10:59.795Z,99.90
2023-05-21T11:13:18.639Z,99.90
2023-05-21T11:15:27.166Z,99.90
2023-05-21T11:17:46.414Z,99.90
2023-05-21T11:19:52.413Z,99.90
2023-05-21T11:22:01.526Z,99.90
2023-05-21T11:24:13.567Z,99.90
2023-05-21T11:26:23.454Z,99.90
2023-05-21T11:28:39.451Z,99.90
2023-05-21T11:30:43.356Z,99.90
2023-05-21T11:33:25.763Z,99.90
2023-05-21T11:35:37.188Z,99.90
2023-05-21T11:37:48.461Z,99.90
2023-05-21T11:40:30.618Z,99.90
2023-05-21T11:42:59.875Z,99.90
2023-05-21T11:45:06.823Z,99.30
2023-05-21T11:47:11.260Z,99.80
2023-05-21T11:49:14.879Z,99.20
2023-05-21T11:51:20.154Z,99.60
2023-05-21T11:53:24.216Z,99.20
2023-05-21T11:55:28.107Z,99.50
2023-05-21T11:57:32.131Z,99.60
2023-05-21T11:59:36.036Z,95.40
2023-05-21T12:01:39.697Z,94.60
2023-05-21T12:03:43.729Z,94.50
2023-05-21T12:05:48.236Z,92.80
2023-05-21T12:07:54.809Z,93.10
2023-05-21T12:09:58.595Z,92.60
2023-05-21T12:12:03.392Z,92.40
2023-05-21T12:14:12.192Z,91.80
2023-05-21T12:16:16.005Z,91.30
2023-05-21T12:18:19.798Z,90.30
2023-05-21T12:20:24.105Z,90.80
2023-05-21T12:22:30.072Z,90.70
2023-05-21T12:24:35.837Z,90.50
2023-05-21T12:26:39.666Z,90.80
2023-05-21T12:28:43.448Z,90.60
2023-05-21T12:30:47.664Z,90.30
2023-05-21T12:32:51.651Z,90.10
2023-05-21T12:34:56.343Z,90.40
2023-05-21T12:37:00.247Z,90.10
2023-05-21T12:39:04.765Z,90.40
2023-05-21T12:41:10.258Z,90.30
2023-05-21T12:43:14.552Z,90.20
2023-05-21T12:45:18.985Z,88.70
2023-05-21T12:47:25.277Z,87.40
2023-05-21T12:49:36.199Z,86.60
2023-05-21T12:51:41.059Z,86.60
2023-05-21T12:53:44.950Z,86.50
2023-05-21T12:55:48.800Z,86.70
2023-05-21T12:58:04.601Z,87.20
2023-05-21T13:00:11.613Z,85.10
2023-05-21T13:02:22.397Z,86.30
2023-05-21T13:04:26.634Z,86.00
2023-05-21T13:06:30.406Z,85.10
2023-05-21T13:08:35.150Z,84.10
2023-05-21T13:10:39.024Z,83.40
2023-05-21T13:12:44.329Z,84.20
2023-05-21T13:14:50.457Z,83.30
2023-05-21T13:16:54.346Z,83.80
2023-05-21T13:18:58.314Z,82.80
2023-05-21T13:21:02.266Z,84.00
2023-05-21T13:23:07.259Z,83.00
2023-05-21T13:25:13.430Z,83.20
2023-05-21T13:27:17.320Z,84.10
2023-05-21T13:29:21.215Z,85.20
2023-05-21T13:31:26.662Z,84.80
2023-05-21T13:33:31.939Z,84.10
2023-05-21T13:35:36.535Z,83.70
2023-05-21T13:37:40.979Z,81.90
2023-05-21T13:39:44.859Z,80.00
2023-05-21T13:41:48.842Z,80.70
2023-05-21T13:43:53.362Z,80.40
2023-05-21T13:45:57.163Z,79.20
2023-05-21T13:48:02.329Z,77.90
2023-05-21T13:50:06.754Z,78.30
2023-05-21T13:52:10.845Z,78.00
2023-05-21T13:54:15.847Z,77.00
2023-05-21T13:56:20.921Z,72.10
2023-05-21T13:58:24.581Z,69.80
2023-05-21T14:00:28.482Z,69.10
2023-05-21T14:02:32.203Z,68.40
2023-05-21T14:04:40.256Z,70.00
2023-05-21T14:06:44.330Z,71.10
2023-05-21T14:08:47.840Z,71.80
2023-05-21T14:10:52.305Z,71.00
2023-05-21T14:13:04.308Z,70.30
2023-05-21T14:15:16.524Z,71.00
2023-05-21T14:17:20.521Z,72.00
2023-05-21T14:19:24.457Z,70.80
2023-05-21T14:21:31.880Z,70.80
2023-05-21T14:23:35.813Z,70.10
2023-05-21T14:25:39.778Z,69.10
2023-05-21T14:27:43.646Z,69.60
2023-05-21T14:29:47.416Z,69.60
2023-05-21T14:31:52.473Z,70.50
2023-05-21T14:33:56.918Z,69.50
2023-05-21T14:36:03.798Z,69.60
2023-05-21T14:38:09.155Z,69.60
2023-05-21T14:40:13.963Z,69.90
2023-05-21T14:42:18.129Z,69.50
2023-05-21T14:44:21.931Z,68.80
2023-05-21T14:46:26.195Z,68.60
2023-05-21T14:48:30.233Z,66.80
2023-05-21T14:50:34.062Z,66.30
2023-05-21T14:52:38.354Z,67.00
2023-05-21T14:54:44.257Z,67.90
2023-05-21T14:56:48.164Z,67.50
2023-05-21T14:58:52.182Z,67.80
2023-05-21T15:00:55.876Z,67.90
2023-05-21T15:02:59.752Z,69.00
2023-05-21T15:05:03.566Z,69.20
2023-05-21T15:07:07.253Z,66.90
2023-05-21T15:09:11.216Z,67.00
2023-05-21T15:11:16.602Z,65.60
2023-05-21T15:13:21.634Z,65.30
2023-05-21T15:15:25.623Z,64.30
2023-05-21T15:17:29.590Z,65.50
2023-05-21T15:19:33.483Z,65.30
2023-05-21T15:21:37.257Z,66.10
2023-05-21T15:23:41.099Z,66.00
2023-05-21T15:25:44.981Z,65.80
2023-05-21T15:27:50.681Z,66.10
2023-05-21T15:29:54.621Z,67.30
2023-05-21T15:31:58.624Z,66.80
2023-05-21T15:34:03.271Z,66.50
2023-05-21T15:36:07.502Z,66.10
2023-05-21T15:38:11.214Z,66.10
2023-05-21T15:40:15.408Z,67.20
2023-05-21T15:42:18.998Z,68.20
2023-05-21T15:44:24.637Z,69.00
2023-05-21T15:46:28.128Z,67.80
2023-05-21T15:48:32.396Z,67.50
2023-05-21T15:50:38.351Z,67.80
2023-05-21T15:52:42.904Z,67.80
2023-05-21T15:54:47.147Z,66.40
2023-05-21T15:56:51.626Z,64.70
2023-05-21T15:58:58.692Z,65.40
2023-05-21T16:01:04.002Z,63.50
2023-05-21T16:03:08.319Z,64.20
2023-05-21T16:05:12.340Z,63.70
2023-05-21T16:07:17.144Z,63.80
2023-05-21T16:09:21.227Z,61.90
2023-05-21T16:11:25.176Z,62.70
2023-05-21T16:13:29.560Z,61.90
2023-05-21T16:15:33.314Z,61.90
2023-05-21T16:17:39.409Z,61.60
2023-05-21T16:19:43.346Z,61.80
2023-05-21T16:21:47.272Z,62.20
2023-05-21T16:23:51.170Z,62.80
2023-05-21T16:25:54.731Z,63.30
2023-05-21T16:27:58.407Z,63.60
2023-05-21T16:30:02.158Z,63.30
2023-05-21T16:32:13.767Z,62.90
2023-05-21T16:34:26.192Z,61.40
2023-05-21T16:36:35.671Z,60.40
2023-05-21T16:38:46.564Z,60.70
2023-05-21T16:40:56.787Z,61.10
2023-05-21T16:43:06.592Z,61.10
2023-05-21T16:45:22.550Z,61.10
2023-05-21T16:47:33.220Z,60.50
2023-05-21T16:49:45.565Z,60.70
2023-05-21T16:51:55.810Z,61.20
2023-05-21T16:54:06.808Z,60.40
2023-05-21T16:56:16.269Z,60.20
2023-05-21T16:58:29.522Z,59.50
2023-05-21T17:00:33.335Z,59.40
2023-05-21T17:02:37.166Z,59.50
2023-05-21T17:04:47.409Z,59.80
2023-05-21T17:06:51.360Z,60.70
2023-05-21T17:09:00.427Z,61.30
2023-05-21T17:11:04.326Z,61.10
2023-05-21T17:13:22.311Z,60.60
2023-05-21T17:15:32.527Z,60.40
2023-05-21T17:17:42.111Z,60.80
2023-05-21T17:19:53.646Z,61.20
2023-05-21T17:22:02.611Z,62.10
2023-05-21T17:24:12.646Z,62.30
2023-05-21T17:26:22.025Z,63.10
2023-05-21T17:28:31.115Z,64.00
2023-05-21T17:30:41.628Z,64.10
2023-05-21T17:32:50.772Z,64.20
2023-05-21T17:35:03.439Z,64.60
2023-05-21T17:37:08.084Z,64.90
2023-05-21T17:39:14.471Z,65.20
2023-05-21T17:41:23.056Z,65.60
2023-05-21T17:43:34.876Z,66.30
2023-05-21T17:45:39.155Z,66.40
2023-05-21T17:47:48.887Z,66.50
2023-05-21T17:50:01.507Z,66.50
2023-05-21T17:52:12.078Z,66.60
2023-05-21T17:54:21.108Z,66.70
2023-05-21T17:56:27.231Z,67.00
2023-05-21T17:58:33.384Z,67.50
2023-05-21T18:00:37.092Z,68.00
2023-05-21T18:02:41.439Z,68.60
2023-05-21T18:04:45.475Z,69.10
2023-05-21T18:06:51.661Z,69.80
2023-05-21T18:08:55.287Z,70.70
2023-05-21T18:11:01.240Z,70.80
2023-05-21T18:13:05.018Z,71.00
2023-05-21T18:15:10.249Z,71.50
2023-05-21T18:17:13.670Z,71.90
2023-05-21T18:19:17.589Z,72.20
2023-05-21T18:21:21.216Z,72.80
2023-05-21T18:23:28.519Z,73.20
2023-05-21T18:25:32.535Z,73.40
2023-05-21T18:27:36.362Z,74.00
2023-05-21T18:29:40.048Z,74.40
2023-05-21T18:31:45.299Z,74.80
2023-05-21T18:33:49.370Z,75.20
2023-05-21T18:35:55.168Z,75.30
2023-05-21T18:37:58.900Z,75.60
2023-05-21T18:40:05.749Z,76.00
2023-05-21T18:42:13.507Z,76.40
2023-05-21T18:44:18.273Z,76.60
2023-05-21T18:46:21.858Z,76.80
2023-05-21T18:48:25.637Z,77.00
2023-05-21T18:50:29.440Z,77.40
2023-05-21T18:52:33.188Z,77.60
2023-05-21T18:54:37.449Z,78.00
2023-05-21T18:56:44.767Z,78.40
2023-05-21T18:58:54.525Z,79.10
2023-05-21T19:00:58.265Z,79.80
2023-05-21T19:03:02.377Z,80.90
2023-05-21T19:05:06.755Z,81.70
2023-05-21T19:07:11.677Z,82.50
2023-05-21T19:09:15.545Z,83.00
2023-05-21T19:11:19.416Z,83.50
2023-05-21T19:13:25.128Z,84.00
2023-05-21T19:15:29.157Z,84.70
2023-05-21T19:17:33.796Z,85.40
2023-05-21T19:19:37.833Z,86.00
2023-05-21T19:21:41.680Z,86.40
2023-05-21T19:23:53.274Z,87.00
2023-05-21T19:25:57.258Z,87.60
2023-05-21T19:28:01.940Z,88.10
2023-05-21T19:30:08.567Z,88.60
2023-05-21T19:32:12.645Z,88.80
2023-05-21T19:34:16.576Z,88.90
2023-05-21T19:36:20.451Z,89.20
2023-05-21T19:38:24.206Z,89.60
2023-05-21T19:40:27.811Z,90.00
2023-05-21T19:42:31.467Z,90.30
2023-05-21T19:44:35.287Z,90.50
2023-05-21T19:46:40.601Z,90.80
2023-05-21T19:48:47.017Z,91.10
2023-05-21T19:50:50.570Z,91.50
2023-05-21T19:52:54.301Z,91.40
2023-05-21T19:55:04.463Z,91.80
2023-05-21T19:57:10.248Z,92.00
2023-05-21T19:59:16.092Z,91.90
2023-05-21T20:01:20.007Z,92.10
2023-05-21T20:03:25.456Z,92.10
2023-05-21T20:05:29.231Z,92.40
2023-05-21T20:07:33.085Z,92.70
2023-05-21T20:09:36.799Z,92.60
2023-05-21T20:11:42.285Z,92.80
2023-05-21T20:13:50.173Z,92.90
2023-05-21T20:15:54.217Z,93.00
2023-05-21T20:17:59.353Z,93.30
2023-05-21T20:20:11.303Z,93.60
2023-05-21T20:22:16.317Z,93.80
2023-05-21T20:24:19.932Z,93.80
2023-05-21T20:26:23.769Z,94.00
2023-05-21T20:28:27.638Z,94.10
2023-05-21T20:30:33.508Z,94.40
2023-05-21T20:32:37.227Z,94.70
2023-05-21T20:34:54.402Z,94.80
2023-05-21T20:37:06.455Z,94.90
2023-05-21T20:39:12.145Z,95.10
2023-05-21T20:41:15.862Z,95.50
2023-05-21T20:43:20.209Z,95.50
2023-05-21T20:45:23.656Z,95.70
2023-05-21T20:47:30.158Z,95.90
2023-05-21T20:49:34.563Z,95.80
2023-05-21T20:51:38.481Z,96.10
2023-05-21T20:53:43.735Z,96.30
2023-05-21T20:55:47.162Z,96.60
2023-05-21T20:57:51.044Z,96.80
2023-05-21T20:59:55.026Z,97.10
2023-05-21T21:01:58.740Z,97.30
2023-05-21T21:04:02.675Z,97.20
2023-05-21T21:06:06.871Z,97.30
2023-05-21T21:08:10.345Z,97.60
2023-05-21T21:10:15.426Z,97.90
2023-05-21T21:12:25.333Z,98.20
2023-05-21T21:14:31.504Z,98.50
2023-05-21T21:16:35.735Z,98.80
2023-05-21T21:18:41.032Z,98.80
2023-05-21T21:20:49.892Z,99.10
2023-05-21T21:22:53.631Z,99.30
2023-05-21T21:24:57.322Z,99.40
2023-05-21T21:27:02.719Z,99.90
2023-05-21T21:29:06.600Z,99.90
2023-05-21T21:31:10.248Z,99.90
2023-05-21T21:33:14.627Z,99.90
2023-05-21T21:35:18.383Z,99.90
2023-05-21T21:37:22.230Z,99.90
2023-05-21T21:39:26.381Z,99.90
2023-05-21T21:41:30.150Z,99.90
2023-05-21T21:43:35.124Z,99.90
2023-05-21T21:45:38.712Z,99.90
2023-05-21T21:47:42.648Z,99.90
2023-05-21T21:49:46.264Z,99.90
2023-05-21T21:51:51.386Z,99.90
2023-05-21T21:53:54.914Z,99.90
2023-05-21T21:55:58.493Z,99.90
2023-05-21T21:58:02.952Z,99.90
2023-05-21T22:00:13.553Z,99.90
2023-05-21T22:02:19.012Z,99.90
2023-05-21T22:04:22.693Z,99.90
2023-05-21T22:06:28.129Z,99.90
2023-05-21T22:08:33.132Z,99.90
2023-05-21T22:10:38.567Z,99.90
2023-05-21T22:12:42.323Z,99.90
2023-05-21T22:14:46.511Z,99.90
2023-05-21T22:16:53.242Z,99.90
2023-05-21T22:19:03.284Z,99.90
2023-05-21T22:21:10.010Z,99.90
2023-05-21T22:23:14.040Z,99.90
2023-05-21T22:25:17.592Z,99.90
2023-05-21T22:27:21.533Z,99.90
2023-05-21T22:29:25.007Z,99.90
2023-05-21T22:31:28.585Z,99.90
2023-05-21T22:33:33.677Z,99.90
2023-05-21T22:35:37.356Z,99.90
2023-05-21T22:37:41.415Z,99.90
2023-05-21T22:39:45.041Z,99.90
2023-05-21T22:41:48.529Z,99.90
2023-05-21T22:43:52.363Z,99.90
2023-05-21T22:45:55.923Z,99.90
2023-05-21T22:48:07.555Z,99.90
2023-05-21T22:50:13.078Z,99.90
2023-05-21T22:52:16.809Z,99.90
2023-05-21T22:54:20.321Z,99.90
2023-05-21T22:56:23.789Z,99.90
2023-05-21T22:58:27.545Z,99.90
2023-05-21T23:00:31.071Z,99.90
2023-05-21T23:02:34.430Z,99.90
2023-05-21T23:04:43.900Z,99.90
2023-05-21T23:06:49.655Z,99.90
2023-05-21T23:08:53.449Z,99.90
2023-05-21T23:10:57.272Z,99.90
2023-05-21T23:13:00.693Z,99.90
2023-05-21T23:15:04.847Z,99.90
2023-05-21T23:17:08.572Z,99.90
2023-05-21T23:19:12.292Z,99.90
2023-05-21T23:21:15.875Z,99.90
2023-05-21T23:23:21.012Z,99.90
2023-05-21T23:25:24.460Z,99.90
2023-05-21T23:27:27.876Z,99.90
2023-05-21T23:29:31.657Z,99.90
2023-05-21T23:31:35.202Z,99.90
2023-05-21T23:33:38.709Z,99.90
2023-05-21T23:35:42.703Z,99.90
2023-05-21T23:37:46.398Z,99.90
2023-05-21T23:39:51.656Z,99.90
2023-05-21T23:41:55.175Z,99.90
2023-05-21T23:43:58.568Z,99.90
2023-05-21T23:46:02.423Z,99.90
2023-05-21T23:48:06.250Z,99.90
2023-05-21T23:50:10.856Z,99.90
2023-05-21T23:52:17.389Z,99.90
2023-05-21T23:54:21.106Z,99.90
2023-05-21T23:56:26.377Z,99.90
2023-05-21T23:58:30.130Z,99.90
